Time;durP1;ratioP1;P1;durP2;ratioP2;P2;SDS_P1;SDS_P2;PMS_P1;PMS_P2;Temp;Humidity;BMP_temperature;BMP_pressure;BME280_temperature;BME280_humidity;BME280_pressure;Samples;Min_cycle;Max_cycle;Signal;HPM_P1;HPM_P2
2023/06/19 00:00:21;;;;;;;;;4.75;4.75;;;;;;;;5049374;28;8896;-84
2023/06/19 00:02:48;;;;;;;;;4.25;4.25;;;;;;;;5050303;28;8853;-85
2023/06/19 00:05:16;;;;;;;;;4.75;4.75;;;;;;;;5050460;28;8866;-85
2023/06/19 00:07:43;;;;;;;;;4.75;4.75;;;;;;;;5049550;28;8899;-86
2023/06/19 00:10:14;;;;;;;;;4.50;4.25;;;;;;;;5049228;28;8877;-86
2023/06/19 00:12:41;;;;;;;;;5.25;5.25;;;;;;;;5052961;28;8851;-85
2023/06/19 00:15:10;;;;;;;;;3.60;3.60;;;;;;;;5051143;28;8857;-85
2023/06/19 00:17:37;;;;;;;;;5.80;4.00;;;;;;;;5056668;28;8858;-85
2023/06/19 00:20:06;;;;;;;;;6.60;5.00;;;;;;;;5049942;28;8846;-84
2023/06/19 00:22:33;;;;;;;;;5.20;5.00;;;;;;;;5050109;28;8845;-85
2023/06/19 00:25:01;;;;;;;;;6.40;6.40;;;;;;;;5048046;28;9616;-85
2023/06/19 00:27:30;;;;;;;;;5.80;5.80;;;;;;;;5051101;28;8873;-85
2023/06/19 00:30:01;;;;;;;;;5.00;5.00;;;;;;;;5051380;28;8865;-86
2023/06/19 00:32:29;;;;;;;;;3.75;3.75;;;;;;;;5053191;28;8848;-85
2023/06/19 00:34:56;;;;;;;;;4.75;4.25;;;;;;;;5058288;28;8858;-87
2023/06/19 00:37:31;;;;;;;;;5.75;5.75;;;;;;;;5060076;28;8980;-87
2023/06/19 00:39:59;;;;;;;;;5.75;5.75;;;;;;;;5050659;28;8863;-86
2023/06/19 00:42:26;;;;;;;;;5.50;4.00;;;;;;;;5050388;28;8841;-86
2023/06/19 00:44:55;;;;;;;;;5.50;5.50;;;;;;;;5050782;28;8984;-87
2023/06/19 00:47:23;;;;;;;;;9.00;7.75;;;;;;;;5062900;28;8852;-85
2023/06/19 00:49:51;;;;;;;;;7.25;6.00;;;;;;;;5050226;28;8849;-85
2023/06/19 00:52:18;;;;;;;;;6.75;6.75;;;;;;;;5038839;28;8842;-85
2023/06/19 00:54:46;;;;;;;;;6.00;5.25;;;;;;;;5049101;28;8849;-85
2023/06/19 00:57:13;;;;;;;;;6.00;4.00;;;;;;;;5049426;28;8866;-85
2023/06/19 00:59:41;;;;;;;;;7.50;7.00;;;;;;;;5049220;28;8873;-84
2023/06/19 01:02:09;;;;;;;;;5.75;5.00;;;;;;;;5049810;28;8855;-84
2023/06/19 01:04:37;;;;;;;;;6.00;6.00;;;;;;;;5051681;28;8890;-84
2023/06/19 01:07:10;;;;;;;;;5.75;5.75;;;;;;;;5053289;28;8861;-84
2023/06/19 01:09:42;;;;;;;;;6.00;4.25;;;;;;;;5054339;28;8873;-84
2023/06/19 01:12:13;;;;;;;;;6.75;6.75;;;;;;;;5054584;28;8853;-83
2023/06/19 01:14:46;;;;;;;;;8.00;7.75;;;;;;;;5065331;28;8869;-85
2023/06/19 01:17:16;;;;;;;;;7.25;7.25;;;;;;;;5050854;28;8896;-85
2023/06/19 01:19:43;;;;;;;;;8.50;7.00;;;;;;;;5056567;28;8869;-86
2023/06/19 01:22:22;;;;;;;;;5.75;5.75;;;;;;;;5054248;28;8850;-87
2023/06/19 01:24:50;;;;;;;;;8.00;8.00;;;;;;;;5062771;28;8869;-86
2023/06/19 01:27:17;;;;;;;;;6.00;6.00;;;;;;;;5065079;28;8993;-84
2023/06/19 01:29:45;;;;;;;;;7.25;7.25;;;;;;;;5066319;28;8877;-85
2023/06/19 01:32:18;;;;;;;;;7.00;6.25;;;;;;;;5064146;28;8926;-84
2023/06/19 01:34:50;;;;;;;;;30.00;28.00;;;;;;;;5058768;28;8861;-85
2023/06/19 01:37:21;;;;;;;;;8.75;6.75;;;;;;;;5048825;28;8854;-85
2023/06/19 01:39:49;;;;;;;;;9.00;9.00;;;;;;;;5051654;28;8869;-85
2023/06/19 01:42:17;;;;;;;;;9.50;8.00;;;;;;;;5048942;28;8857;-85
2023/06/19 01:44:44;;;;;;;;;5.75;5.75;;;;;;;;5049668;28;8841;-86
2023/06/19 01:47:13;;;;;;;;;7.50;7.50;;;;;;;;5048886;28;8876;-86
2023/06/19 01:49:40;;;;;;;;;7.25;7.25;;;;;;;;5058046;28;8862;-84
2023/06/19 01:52:08;;;;;;;;;8.50;8.50;;;;;;;;5055337;28;8873;-85
2023/06/19 01:54:37;;;;;;;;;7.25;7.25;;;;;;;;5065271;28;8846;-85
2023/06/19 01:57:04;;;;;;;;;11.25;8.50;;;;;;;;5059122;28;8980;-85
2023/06/19 01:59:32;;;;;;;;;7.75;7.75;;;;;;;;5064025;28;8894;-85
2023/06/19 02:01:59;;;;;;;;;7.25;7.25;;;;;;;;5054196;28;8806;-84
2023/06/19 02:04:26;;;;;;;;;8.50;7.00;;;;;;;;5065650;28;8850;-84
2023/06/19 02:06:54;;;;;;;;;7.25;7.25;;;;;;;;5060718;28;8896;-83
2023/06/19 02:09:21;;;;;;;;;6.75;6.75;;;;;;;;5052977;28;8963;-85
2023/06/19 02:11:50;;;;;;;;;7.50;7.50;;;;;;;;5055062;28;8869;-86
2023/06/19 02:14:17;;;;;;;;;9.50;9.00;;;;;;;;5067333;28;8843;-85
2023/06/19 02:16:45;;;;;;;;;7.75;7.25;;;;;;;;5053229;28;8869;-86
2023/06/19 02:19:12;;;;;;;;;11.00;9.00;;;;;;;;5055509;28;8864;-84
2023/06/19 02:21:39;;;;;;;;;7.00;7.00;;;;;;;;5053856;28;8853;-85
2023/06/19 02:24:07;;;;;;;;;6.75;6.75;;;;;;;;5053369;28;8895;-85
2023/06/19 02:26:34;;;;;;;;;9.50;8.75;;;;;;;;5053402;28;8854;-86
2023/06/19 02:29:03;;;;;;;;;7.00;7.00;;;;;;;;5061962;28;8871;-87
2023/06/19 02:31:30;;;;;;;;;9.00;7.50;;;;;;;;5051509;28;8877;-86
2023/06/19 02:33:58;;;;;;;;;7.25;6.50;;;;;;;;5052055;28;8988;-85
2023/06/19 02:36:25;;;;;;;;;12.00;11.00;;;;;;;;5052555;28;8867;-85
2023/06/19 02:38:53;;;;;;;;;8.25;8.25;;;;;;;;5052954;28;8923;-85
2023/06/19 02:41:21;;;;;;;;;9.75;8.75;;;;;;;;5058766;28;8854;-86
2023/06/19 02:43:48;;;;;;;;;10.50;10.50;;;;;;;;5060180;28;8850;-85
2023/06/19 02:46:17;;;;;;;;;9.75;9.75;;;;;;;;5062540;28;8861;-84
2023/06/19 02:48:44;;;;;;;;;11.00;11.00;;;;;;;;5056644;28;8901;-86
2023/06/19 02:51:12;;;;;;;;;9.25;9.25;;;;;;;;5057436;28;8857;-84
2023/06/19 02:53:40;;;;;;;;;11.25;10.50;;;;;;;;5057853;28;8865;-86
2023/06/19 02:56:07;;;;;;;;;13.00;12.50;;;;;;;;5071494;28;8985;-86
2023/06/19 02:58:37;;;;;;;;;11.00;11.00;;;;;;;;5063332;28;8873;-86
2023/06/19 03:01:06;;;;;;;;;11.25;11.00;;;;;;;;5058256;28;8813;-86
2023/06/19 03:03:37;;;;;;;;;13.75;12.50;;;;;;;;5056086;28;8870;-86
2023/06/19 03:06:05;;;;;;;;;11.00;9.50;;;;;;;;5065091;28;8978;-85
2023/06/19 03:08:35;;;;;;;;;13.25;13.25;;;;;;;;5064492;28;9005;-85
2023/06/19 03:11:04;;;;;;;;;10.25;10.25;;;;;;;;5057183;28;8927;-88
2023/06/19 03:13:32;;;;;;;;;11.00;11.00;;;;;;;;5051773;28;8899;-87
2023/06/19 03:16:00;;;;;;;;;12.25;10.00;;;;;;;;5051579;28;8984;-86
2023/06/19 03:18:27;;;;;;;;;10.75;9.00;;;;;;;;5052512;28;8993;-85
2023/06/19 03:20:56;;;;;;;;;10.75;10.75;;;;;;;;5051290;28;10286;-87
2023/06/19 03:23:23;;;;;;;;;10.25;10.25;;;;;;;;5061607;28;8869;-87
2023/06/19 03:25:53;;;;;;;;;14.75;11.50;;;;;;;;5057801;28;8876;-87
2023/06/19 03:28:21;;;;;;;;;15.50;13.00;;;;;;;;5054896;28;8845;-85
2023/06/19 03:30:48;;;;;;;;;12.00;12.00;;;;;;;;5049845;28;8798;-85
2023/06/19 03:33:18;;;;;;;;;11.25;11.00;;;;;;;;5051221;28;9608;-86
2023/06/19 03:35:45;;;;;;;;;11.25;11.25;;;;;;;;5052020;28;8858;-86
2023/06/19 03:38:14;;;;;;;;;15.00;12.00;;;;;;;;5050967;28;8946;-85
2023/06/19 03:40:42;;;;;;;;;10.50;10.50;;;;;;;;5050550;28;8854;-83
2023/06/19 03:43:10;;;;;;;;;12.00;12.00;;;;;;;;5050988;28;8884;-86
2023/06/19 03:45:37;;;;;;;;;11.00;11.00;;;;;;;;5051143;28;8835;-86
2023/06/19 03:48:05;;;;;;;;;12.25;12.25;;;;;;;;5062962;28;9021;-86
2023/06/19 03:50:33;;;;;;;;;13.25;11.00;;;;;;;;5052965;28;8968;-86
2023/06/19 03:53:00;;;;;;;;;14.25;12.00;;;;;;;;5052912;28;9468;-86
2023/06/19 03:55:29;;;;;;;;;17.00;14.50;;;;;;;;5050381;28;8857;-86
2023/06/19 03:57:56;;;;;;;;;8.50;8.50;;;;;;;;5050879;28;8853;-86
2023/06/19 04:00:23;;;;;;;;;11.00;11.00;;;;;;;;5062925;28;8984;-85
2023/06/19 04:02:53;;;;;;;;;14.50;11.75;;;;;;;;5050457;28;8877;-87
2023/06/19 04:05:21;;;;;;;;;11.00;11.00;;;;;;;;5038901;28;8872;-85
2023/06/19 04:07:49;;;;;;;;;9.75;9.75;;;;;;;;5051131;28;9664;-84
2023/06/19 04:10:16;;;;;;;;;10.00;10.00;;;;;;;;5071274;28;8854;-85
2023/06/19 04:12:46;;;;;;;;;13.50;13.50;;;;;;;;5050319;28;8879;-85
2023/06/19 04:15:13;;;;;;;;;11.25;11.25;;;;;;;;5050519;28;8864;-82
2023/06/19 04:17:40;;;;;;;;;11.50;11.50;;;;;;;;5052814;28;8878;-81
2023/06/19 04:20:12;;;;;;;;;10.25;10.25;;;;;;;;5053990;28;8873;-83
2023/06/19 04:22:39;;;;;;;;;15.25;14.75;;;;;;;;5054460;28;8988;-82
2023/06/19 04:25:08;;;;;;;;;11.75;10.75;;;;;;;;5054483;28;8849;-83
2023/06/19 04:27:36;;;;;;;;;11.25;11.25;;;;;;;;5054335;28;8885;-85
2023/06/19 04:30:11;;;;;;;;;12.75;10.00;;;;;;;;5063688;28;8863;-83
2023/06/19 04:32:50;;;;;;;;;;;;;;;;;;;;;
2023/06/19 04:35:18;;;;;;;;;14.00;12.25;;;;;;;;5054495;28;8848;-84
2023/06/19 04:37:48;;;;;;;;;14.00;14.00;;;;;;;;5065590;28;8887;-85
2023/06/19 04:40:18;;;;;;;;;15.00;13.50;;;;;;;;5055207;28;8893;-84
2023/06/19 04:42:49;;;;;;;;;12.25;11.00;;;;;;;;5049914;28;8901;-85
2023/06/19 04:45:17;;;;;;;;;10.75;10.75;;;;;;;;5049695;28;8842;-86
2023/06/19 04:47:54;;;;;;;;;12.75;12.00;;;;;;;;5049467;28;9178;-85
2023/06/19 04:50:22;;;;;;;;;14.00;14.00;;;;;;;;5050439;28;8861;-90
2023/06/19 04:52:50;;;;;;;;;9.25;8.00;;;;;;;;5050771;28;8888;-88
2023/06/19 04:55:20;;;;;;;;;15.00;13.25;;;;;;;;5050380;28;8854;-87
2023/06/19 04:57:47;;;;;;;;;10.50;9.75;;;;;;;;5050501;28;8870;-87
2023/06/19 05:00:24;;;;;;;;;14.25;12.50;;;;;;;;5049949;28;8897;-87
2023/06/19 05:02:59;;;;;;;;;12.50;11.50;;;;;;;;5050466;28;8865;-92
2023/06/19 05:05:30;;;;;;;;;10.25;10.25;;;;;;;;5052603;28;9016;-84
2023/06/19 05:07:58;;;;;;;;;10.50;10.50;;;;;;;;5049332;28;8975;-84
2023/06/19 05:10:25;;;;;;;;;12.25;10.75;;;;;;;;5050025;28;8857;-85
2023/06/19 05:12:52;;;;;;;;;11.25;10.50;;;;;;;;5049254;28;8841;-83
2023/06/19 05:15:23;;;;;;;;;11.50;11.50;;;;;;;;5064008;28;8863;-81
2023/06/19 05:17:53;;;;;;;;;10.00;8.75;;;;;;;;5052530;28;8885;-84
2023/06/19 05:20:23;;;;;;;;;10.00;10.00;;;;;;;;5050985;28;8861;-88
2023/06/19 05:22:51;;;;;;;;;11.00;11.00;;;;;;;;5052240;28;8900;-86
2023/06/19 05:25:18;;;;;;;;;13.00;12.50;;;;;;;;5063472;28;8847;-85
2023/06/19 05:27:46;;;;;;;;;12.75;12.75;;;;;;;;5051739;28;8864;-87
2023/06/19 05:30:13;;;;;;;;;14.00;13.75;;;;;;;;5050608;28;8869;-85
2023/06/19 05:32:42;;;;;;;;;13.50;13.50;;;;;;;;5048149;28;8974;-84
2023/06/19 05:35:10;;;;;;;;;15.00;12.25;;;;;;;;5048583;28;8888;-79
2023/06/19 05:37:38;;;;;;;;;14.75;14.75;;;;;;;;5049570;28;8869;-82
2023/06/19 05:40:07;;;;;;;;;16.25;15.25;;;;;;;;5052434;28;8980;-79
2023/06/19 05:42:34;;;;;;;;;16.25;16.25;;;;;;;;5053866;28;8861;-83
2023/06/19 05:45:01;;;;;;;;;14.00;13.50;;;;;;;;5053610;28;9047;-79
2023/06/19 05:47:30;;;;;;;;;13.50;13.50;;;;;;;;5053789;28;8872;-79
2023/06/19 05:49:59;;;;;;;;;15.25;15.25;;;;;;;;5053948;28;8983;-80
2023/06/19 05:52:26;;;;;;;;;15.50;15.50;;;;;;;;5055070;28;8983;-80
2023/06/19 05:54:54;;;;;;;;;17.25;15.50;;;;;;;;5057022;28;8875;-81
2023/06/19 05:57:23;;;;;;;;;16.25;15.00;;;;;;;;5057082;28;8850;-80
2023/06/19 05:59:53;;;;;;;;;19.25;18.00;;;;;;;;5054721;28;9660;-80
2023/06/19 06:02:21;;;;;;;;;15.25;15.25;;;;;;;;5064233;28;8863;-80
2023/06/19 06:04:48;;;;;;;;;14.25;14.25;;;;;;;;5066101;28;8854;-80
2023/06/19 06:07:17;;;;;;;;;18.00;16.75;;;;;;;;5057005;28;8892;-80
2023/06/19 06:09:46;;;;;;;;;21.75;19.50;;;;;;;;5067212;28;8889;-81
2023/06/19 06:12:13;;;;;;;;;15.25;14.25;;;;;;;;5055135;28;8865;-81
2023/06/19 06:14:43;;;;;;;;;18.25;15.00;;;;;;;;5063857;28;8888;-81
2023/06/19 06:17:11;;;;;;;;;16.00;13.75;;;;;;;;5059650;28;8973;-81
2023/06/19 06:19:39;;;;;;;;;15.00;15.00;;;;;;;;5052389;28;8849;-80
2023/06/19 06:22:06;;;;;;;;;14.75;14.00;;;;;;;;5050914;28;8861;-82
2023/06/19 06:24:35;;;;;;;;;18.00;17.00;;;;;;;;5062850;28;8963;-81
2023/06/19 06:27:05;;;;;;;;;14.60;14.20;;;;;;;;5050842;28;8849;-80
2023/06/19 06:29:32;;;;;;;;;18.25;18.25;;;;;;;;5050242;28;8857;-81
2023/06/19 06:32:05;;;;;;;;;17.25;16.25;;;;;;;;5051000;28;8932;-80
2023/06/19 06:34:33;;;;;;;;;13.60;13.40;;;;;;;;5051894;28;8853;-80
2023/06/19 06:37:00;;;;;;;;;16.00;16.00;;;;;;;;5051451;28;8874;-82
2023/06/19 06:39:28;;;;;;;;;15.80;14.60;;;;;;;;5052615;28;8907;-84
2023/06/19 06:41:58;;;;;;;;;13.20;13.20;;;;;;;;5052617;28;8857;-84
2023/06/19 06:44:32;;;;;;;;;14.40;14.40;;;;;;;;5051863;28;8865;-84
2023/06/19 06:47:00;;;;;;;;;13.00;13.00;;;;;;;;5051129;28;8931;-83
2023/06/19 06:49:27;;;;;;;;;13.80;13.80;;;;;;;;5050753;28;9656;-84
2023/06/19 06:51:55;;;;;;;;;15.00;13.60;;;;;;;;5050317;28;8861;-84
2023/06/19 06:54:22;;;;;;;;;15.80;14.60;;;;;;;;5061762;28;8847;-81
2023/06/19 06:56:56;;;;;;;;;16.00;15.40;;;;;;;;5053187;28;8900;-81
2023/06/19 06:59:24;;;;;;;;;13.40;13.00;;;;;;;;5053153;28;8857;-81
2023/06/19 07:01:53;;;;;;;;;13.20;12.60;;;;;;;;5053096;28;8916;-80
2023/06/19 07:04:23;;;;;;;;;16.20;16.20;;;;;;;;5053713;28;8887;-81
2023/06/19 07:06:51;;;;;;;;;14.20;13.60;;;;;;;;5052047;28;8859;-81
2023/06/19 07:09:20;;;;;;;;;12.60;12.60;;;;;;;;5051666;28;8881;-81
2023/06/19 07:11:48;;;;;;;;;13.40;13.20;;;;;;;;5068072;28;8882;-81
2023/06/19 07:14:17;;;;;;;;;14.40;14.40;;;;;;;;5056747;28;8940;-83
2023/06/19 07:16:46;;;;;;;;;17.60;15.00;;;;;;;;5050363;28;8903;-79
2023/06/19 07:19:16;;;;;;;;;14.40;13.00;;;;;;;;5049998;28;8857;-81
2023/06/19 07:21:46;;;;;;;;;16.40;14.00;;;;;;;;5058912;28;8851;-80
2023/06/19 07:24:13;;;;;;;;;14.40;14.40;;;;;;;;5054015;28;8833;-80
2023/06/19 07:26:40;;;;;;;;;14.60;12.60;;;;;;;;5050761;28;8861;-81
2023/06/19 07:29:08;;;;;;;;;12.00;12.00;;;;;;;;5050025;28;8927;-81
2023/06/19 07:31:35;;;;;;;;;11.60;11.60;;;;;;;;5050259;28;8805;-81
2023/06/19 07:34:04;;;;;;;;;15.80;14.00;;;;;;;;5050739;28;8861;-81
2023/06/19 07:36:31;;;;;;;;;11.20;11.00;;;;;;;;5051852;28;8865;-81
2023/06/19 07:38:58;;;;;;;;;11.60;11.60;;;;;;;;5053329;28;8873;-82
2023/06/19 07:41:26;;;;;;;;;14.00;14.00;;;;;;;;5052931;28;8849;-81
2023/06/19 07:43:55;;;;;;;;;18.20;16.80;;;;;;;;5050448;28;8921;-81
2023/06/19 07:46:22;;;;;;;;;14.40;13.40;;;;;;;;5059808;28;8854;-82
2023/06/19 07:48:52;;;;;;;;;16.00;14.20;;;;;;;;5062382;28;8882;-81
2023/06/19 07:51:21;;;;;;;;;17.00;14.60;;;;;;;;5050024;28;9741;-82
2023/06/19 07:53:48;;;;;;;;;16.20;14.60;;;;;;;;5049385;28;8865;-83
2023/06/19 07:56:16;;;;;;;;;13.60;13.60;;;;;;;;5054504;28;8865;-82
2023/06/19 07:58:43;;;;;;;;;16.00;14.40;;;;;;;;5054541;28;8858;-81
2023/06/19 08:01:11;;;;;;;;;15.20;14.20;;;;;;;;5040520;28;8766;-81
2023/06/19 08:03:38;;;;;;;;;17.40;17.40;;;;;;;;5049366;28;8869;-80
2023/06/19 08:06:05;;;;;;;;;12.80;12.80;;;;;;;;5049231;28;8884;-81
2023/06/19 08:08:34;;;;;;;;;17.80;14.40;;;;;;;;5049355;28;8865;-81
2023/06/19 08:11:01;;;;;;;;;16.20;16.20;;;;;;;;5049048;28;8838;-81
2023/06/19 08:13:31;;;;;;;;;15.40;15.40;;;;;;;;5049263;28;8873;-81
2023/06/19 08:15:59;;;;;;;;;14.80;14.80;;;;;;;;5048569;28;8870;-81
2023/06/19 08:18:26;;;;;;;;;16.00;14.20;;;;;;;;5060712;28;9689;-80
2023/06/19 08:20:53;;;;;;;;;17.60;17.60;;;;;;;;5060658;28;8847;-81
2023/06/19 08:23:23;;;;;;;;;17.80;13.60;;;;;;;;5067213;28;9727;-81
2023/06/19 08:25:52;;;;;;;;;13.20;12.60;;;;;;;;5054403;28;8861;-80
2023/06/19 08:28:20;;;;;;;;;13.80;12.40;;;;;;;;5060722;28;8993;-80
2023/06/19 08:30:48;;;;;;;;;15.80;15.80;;;;;;;;5061859;28;8806;-80
2023/06/19 08:33:17;;;;;;;;;18.60;15.40;;;;;;;;5061205;28;8851;-81
2023/06/19 08:35:46;;;;;;;;;14.60;14.00;;;;;;;;5064167;28;8859;-80
2023/06/19 08:38:13;;;;;;;;;15.60;14.80;;;;;;;;5070730;28;8851;-81
2023/06/19 08:40:43;;;;;;;;;15.60;13.80;;;;;;;;5067798;28;8991;-80
2023/06/19 08:43:13;;;;;;;;;13.00;13.00;;;;;;;;5069302;28;8871;-81
2023/06/19 08:45:40;;;;;;;;;11.80;11.80;;;;;;;;5067357;28;8933;-80
2023/06/19 08:48:09;;;;;;;;;14.20;14.20;;;;;;;;5065926;28;8851;-83
2023/06/19 08:50:36;;;;;;;;;14.00;13.00;;;;;;;;5065378;28;8855;-78
2023/06/19 08:53:03;;;;;;;;;6.00;5.20;;;;;;;;5067065;28;8831;-78
2023/06/19 08:55:30;;;;;;;;;12.00;12.00;;;;;;;;5066052;28;8827;-79
2023/06/19 08:57:58;;;;;;;;;12.40;12.40;;;;;;;;5067099;28;8872;-79
2023/06/19 09:00:28;;;;;;;;;11.20;11.20;;;;;;;;5065356;28;8817;-79
2023/06/19 09:03:01;;;;;;;;;10.20;10.20;;;;;;;;5065127;28;8839;-79
2023/06/19 09:05:32;;;;;;;;;8.00;8.00;;;;;;;;5067811;28;8900;-78
2023/06/19 09:08:01;;;;;;;;;10.60;10.60;;;;;;;;5068618;28;8928;-78
2023/06/19 09:10:39;;;;;;;;;12.40;10.80;;;;;;;;5071256;28;8827;-78
2023/06/19 09:13:07;;;;;;;;;9.00;9.00;;;;;;;;5068788;28;8850;-78
2023/06/19 09:15:37;;;;;;;;;9.00;9.00;;;;;;;;5070687;28;8867;-78
2023/06/19 09:18:05;;;;;;;;;11.20;11.20;;;;;;;;5059143;28;8870;-78
2023/06/19 09:20:33;;;;;;;;;10.80;10.80;;;;;;;;5053363;28;8870;-78
2023/06/19 09:23:00;;;;;;;;;12.00;12.00;;;;;;;;5057185;28;8868;-78
2023/06/19 09:25:28;;;;;;;;;10.00;10.00;;;;;;;;5061390;28;8855;-78
2023/06/19 09:27:55;;;;;;;;;13.00;11.40;;;;;;;;5055329;28;8845;-78
2023/06/19 09:30:23;;;;;;;;;10.80;9.00;;;;;;;;5051663;28;8781;-79
2023/06/19 09:32:54;;;;;;;;;10.00;10.00;;;;;;;;5040691;28;8833;-80
2023/06/19 09:35:21;;;;;;;;;6.00;6.00;;;;;;;;5052565;28;8857;-81
2023/06/19 09:37:49;;;;;;;;;9.20;9.20;;;;;;;;5055322;28;8847;-80
2023/06/19 09:40:16;;;;;;;;;10.20;10.20;;;;;;;;5048699;28;8904;-79
2023/06/19 09:42:44;;;;;;;;;10.80;9.00;;;;;;;;5048056;28;8853;-78
2023/06/19 09:45:17;;;;;;;;;12.20;10.00;;;;;;;;5048011;28;8850;-80
2023/06/19 09:47:46;;;;;;;;;11.40;9.00;;;;;;;;5056911;28;8858;-80
2023/06/19 09:50:15;;;;;;;;;8.80;7.00;;;;;;;;5051365;28;9857;-80
2023/06/19 09:52:44;;;;;;;;;8.60;8.60;;;;;;;;5061465;28;9031;-80
2023/06/19 09:55:13;;;;;;;;;12.40;12.40;;;;;;;;5048153;28;8861;-80
2023/06/19 09:57:41;;;;;;;;;9.60;8.00;;;;;;;;5049150;28;8861;-80
2023/06/19 10:00:16;;;;;;;;;8.60;8.60;;;;;;;;5055500;28;8857;-81
2023/06/19 10:02:46;;;;;;;;;11.80;8.40;;;;;;;;5048098;28;8928;-81
2023/06/19 10:05:15;;;;;;;;;9.00;9.00;;;;;;;;5047881;28;8943;-78
2023/06/19 10:07:44;;;;;;;;;8.60;8.60;;;;;;;;5049027;28;8878;-77
2023/06/19 10:10:13;;;;;;;;;6.00;6.00;;;;;;;;5058464;28;8855;-78
2023/06/19 10:12:43;;;;;;;;;6.20;6.20;;;;;;;;5053925;28;8845;-80
2023/06/19 10:15:13;;;;;;;;;8.80;8.80;;;;;;;;5049805;28;8845;-79
2023/06/19 10:17:47;;;;;;;;;12.00;11.60;;;;;;;;5052030;28;8837;-83
2023/06/19 10:20:32;;;;;;;;;10.00;10.00;;;;;;;;5050598;28;8879;-82
2023/06/19 10:23:05;;;;;;;;;7.80;7.80;;;;;;;;5047783;28;8938;-80
2023/06/19 10:25:35;;;;;;;;;10.60;10.60;;;;;;;;5050827;28;8869;-85
2023/06/19 10:28:07;;;;;;;;;8.60;8.60;;;;;;;;5049960;28;8856;-82
2023/06/19 10:30:35;;;;;;;;;7.80;7.80;;;;;;;;5050471;28;9528;-86
2023/06/19 10:33:03;;;;;;;;;11.20;8.40;;;;;;;;5058041;28;8847;-85
2023/06/19 10:35:40;;;;;;;;;9.00;9.00;;;;;;;;5059771;28;8857;-83
2023/06/19 10:38:10;;;;;;;;;10.60;10.00;;;;;;;;5056972;28;8859;-81
2023/06/19 10:40:38;;;;;;;;;10.40;10.40;;;;;;;;5064839;28;8842;-85
2023/06/19 10:43:05;;;;;;;;;5.80;4.20;;;;;;;;5061801;28;8879;-82
2023/06/19 10:45:33;;;;;;;;;5.60;5.60;;;;;;;;5067909;28;8839;-80
2023/06/19 10:48:03;;;;;;;;;8.00;8.00;;;;;;;;5066781;28;8880;-83
2023/06/19 10:50:32;;;;;;;;;7.80;6.60;;;;;;;;5070255;28;8839;-83
2023/06/19 10:53:00;;;;;;;;;7.60;7.60;;;;;;;;5071043;28;8851;-81
2023/06/19 10:55:27;;;;;;;;;10.00;8.00;;;;;;;;5054911;28;9000;-80
2023/06/19 10:57:54;;;;;;;;;7.20;7.20;;;;;;;;5060505;28;8846;-81
2023/06/19 11:00:26;;;;;;;;;7.60;6.00;;;;;;;;5054161;28;8855;-84
2023/06/19 11:02:56;;;;;;;;;8.60;8.60;;;;;;;;5063461;28;9005;-80
2023/06/19 11:05:25;;;;;;;;;7.20;7.20;;;;;;;;5066327;28;8989;-84
2023/06/19 11:07:56;;;;;;;;;8.00;8.00;;;;;;;;5066850;28;8871;-84
2023/06/19 11:10:25;;;;;;;;;8.00;8.00;;;;;;;;5065072;28;8871;-83
2023/06/19 11:12:55;;;;;;;;;10.40;8.60;;;;;;;;5051782;28;8849;-83
2023/06/19 11:15:35;;;;;;;;;8.40;8.40;;;;;;;;5050117;28;9722;-81
2023/06/19 11:18:03;;;;;;;;;8.00;8.00;;;;;;;;5048577;28;8862;-87
2023/06/19 11:20:39;;;;;;;;;8.00;8.00;;;;;;;;5062678;28;8871;-84
2023/06/19 11:23:08;;;;;;;;;8.20;7.00;;;;;;;;5045905;28;8871;-85
2023/06/19 11:25:39;;;;;;;;;7.60;7.60;;;;;;;;5055778;28;8886;-90
2023/06/19 11:28:11;;;;;;;;;9.20;6.80;;;;;;;;5057510;28;8861;-82
2023/06/19 11:30:43;;;;;;;;;7.00;7.00;;;;;;;;5057193;28;8788;-87
2023/06/19 11:33:22;;;;;;;;;6.80;6.80;;;;;;;;5054956;28;8869;-80
2023/06/19 11:35:51;;;;;;;;;8.80;7.40;;;;;;;;5060060;28;8871;-80
2023/06/19 11:38:21;;;;;;;;;9.20;9.20;;;;;;;;5055029;28;8927;-79
2023/06/19 11:40:52;;;;;;;;;7.20;7.20;;;;;;;;5055440;28;8835;-80
2023/06/19 11:43:26;;;;;;;;;9.60;9.60;;;;;;;;5064001;28;8880;-79
2023/06/19 11:45:53;;;;;;;;;8.80;8.80;;;;;;;;5056262;28;8896;-80
2023/06/19 11:48:24;;;;;;;;;9.20;9.20;;;;;;;;5053457;28;9588;-80
2023/06/19 11:50:52;;;;;;;;;9.20;9.20;;;;;;;;5056553;28;8858;-80
2023/06/19 11:53:22;;;;;;;;;7.40;7.40;;;;;;;;5059713;28;8830;-81
2023/06/19 11:55:51;;;;;;;;;8.40;8.40;;;;;;;;5054963;28;8885;-81
2023/06/19 11:58:20;;;;;;;;;8.40;8.40;;;;;;;;5055818;28;8859;-82
2023/06/19 12:00:47;;;;;;;;;10.20;10.20;;;;;;;;5057645;28;8806;-81
2023/06/19 12:03:17;;;;;;;;;9.00;9.00;;;;;;;;5059504;28;8905;-81
2023/06/19 12:05:45;;;;;;;;;9.00;9.00;;;;;;;;5055006;28;8869;-79
2023/06/19 12:08:12;;;;;;;;;11.20;10.00;;;;;;;;5053796;28;8857;-81
2023/06/19 12:10:43;;;;;;;;;9.60;8.00;;;;;;;;5061105;28;8874;-83
2023/06/19 12:13:11;;;;;;;;;9.00;9.00;;;;;;;;5065444;28;8851;-80
2023/06/19 12:15:40;;;;;;;;;11.00;9.60;;;;;;;;5053777;28;8846;-80
2023/06/19 12:18:07;;;;;;;;;9.40;9.40;;;;;;;;5049358;28;8861;-80
2023/06/19 12:20:34;;;;;;;;;9.80;9.80;;;;;;;;5050048;28;8865;-79
2023/06/19 12:23:02;;;;;;;;;9.20;9.20;;;;;;;;5051532;28;8975;-80
2023/06/19 12:25:31;;;;;;;;;7.40;7.40;;;;;;;;5050623;28;9721;-79
2023/06/19 12:28:00;;;;;;;;;7.60;7.60;;;;;;;;5056115;28;8867;-80
2023/06/19 12:30:28;;;;;;;;;9.60;8.00;;;;;;;;5064861;28;8794;-82
2023/06/19 12:32:55;;;;;;;;;6.80;6.80;;;;;;;;5048697;28;8893;-82
2023/06/19 12:35:23;;;;;;;;;7.80;7.80;;;;;;;;5064928;28;8879;-79
2023/06/19 12:37:50;;;;;;;;;7.80;7.80;;;;;;;;5048062;28;8869;-80
2023/06/19 12:40:17;;;;;;;;;11.00;7.40;;;;;;;;5048979;28;8976;-79
2023/06/19 12:42:48;;;;;;;;;6.40;6.40;;;;;;;;5047993;28;8865;-80
2023/06/19 12:45:17;;;;;;;;;8.40;8.40;;;;;;;;5048060;28;8880;-79
2023/06/19 12:47:46;;;;;;;;;8.60;8.00;;;;;;;;5046037;28;8846;-81
2023/06/19 12:50:13;;;;;;;;;8.20;8.20;;;;;;;;5046009;28;8887;-83
2023/06/19 12:52:41;;;;;;;;;9.60;8.00;;;;;;;;5048869;28;8845;-82
2023/06/19 12:57:59;;;;;;;;;9.60;8.40;;;;;;;;5042537;28;9736;-79
2023/06/19 13:00:28;;;;;;;;;11.60;8.60;;;;;;;;5048323;28;9449;-82
2023/06/19 13:02:55;;;;;;;;;11.00;8.00;;;;;;;;5048891;28;8865;-81
2023/06/19 13:05:22;;;;;;;;;7.00;7.00;;;;;;;;5048746;28;8918;-80
2023/06/19 13:07:50;;;;;;;;;8.40;8.00;;;;;;;;5048242;28;8869;-83
2023/06/19 13:10:17;;;;;;;;;10.20;9.00;;;;;;;;5048512;28;9095;-79
2023/06/19 13:12:47;;;;;;;;;12.00;11.40;;;;;;;;5048443;28;8857;-78
2023/06/19 13:15:14;;;;;;;;;9.60;9.60;;;;;;;;5048343;28;8895;-79
2023/06/19 13:17:46;;;;;;;;;10.20;8.00;;;;;;;;5048579;28;9719;-79
2023/06/19 13:20:14;;;;;;;;;9.20;7.80;;;;;;;;5048563;28;8967;-81
2023/06/19 13:22:41;;;;;;;;;8.40;7.40;;;;;;;;5052185;28;8838;-85
2023/06/19 13:25:09;;;;;;;;;7.00;7.00;;;;;;;;5057893;28;9004;-83
2023/06/19 13:27:36;;;;;;;;;7.40;7.40;;;;;;;;5047339;28;8869;-83
2023/06/19 13:30:04;;;;;;;;;7.60;7.60;;;;;;;;5056492;28;8834;-82
2023/06/19 13:32:31;;;;;;;;;7.00;7.00;;;;;;;;5062934;28;8863;-83
2023/06/19 13:35:00;;;;;;;;;7.20;7.20;;;;;;;;5053188;28;9029;-81
2023/06/19 13:37:27;;;;;;;;;10.00;9.40;;;;;;;;5064275;28;8887;-83
2023/06/19 13:39:57;;;;;;;;;8.00;8.00;;;;;;;;5062658;28;8847;-82
2023/06/19 13:42:28;;;;;;;;;8.40;8.40;;;;;;;;5053807;28;8931;-81
2023/06/19 13:44:56;;;;;;;;;11.20;8.00;;;;;;;;5064620;28;9718;-82
2023/06/19 13:47:24;;;;;;;;;9.40;7.80;;;;;;;;5068405;28;8850;-83
2023/06/19 13:49:52;;;;;;;;;6.40;6.40;;;;;;;;5062589;28;9373;-84
2023/06/19 13:52:21;;;;;;;;;7.00;7.00;;;;;;;;5070331;28;9669;-81
2023/06/19 13:54:48;;;;;;;;;11.40;9.40;;;;;;;;5064135;28;8879;-79
2023/06/19 13:57:15;;;;;;;;;8.60;7.80;;;;;;;;5068036;28;9696;-80
2023/06/19 13:59:49;;;;;;;;;8.60;8.60;;;;;;;;5067179;28;8868;-82
2023/06/19 14:02:17;;;;;;;;;6.40;6.40;;;;;;;;5061351;28;8830;-80
2023/06/19 14:04:47;;;;;;;;;8.00;8.00;;;;;;;;5056654;28;8980;-80
2023/06/19 14:07:17;;;;;;;;;7.60;7.60;;;;;;;;5055879;28;9000;-81
2023/06/19 14:09:46;;;;;;;;;7.00;7.00;;;;;;;;5052076;28;8923;-82
2023/06/19 14:12:13;;;;;;;;;9.60;9.60;;;;;;;;5053723;28;8857;-80
2023/06/19 14:14:41;;;;;;;;;8.00;6.80;;;;;;;;5053218;28;8861;-78
2023/06/19 14:17:08;;;;;;;;;8.80;8.80;;;;;;;;5050207;28;8881;-81
2023/06/19 14:19:35;;;;;;;;;10.00;7.40;;;;;;;;5053361;28;8891;-81
2023/06/19 14:22:02;;;;;;;;;7.60;6.80;;;;;;;;5059794;28;8833;-82
2023/06/19 14:24:29;;;;;;;;;7.00;6.20;;;;;;;;5055734;28;8865;-83
2023/06/19 14:26:58;;;;;;;;;6.60;6.60;;;;;;;;5051317;28;8854;-82
2023/06/19 14:29:25;;;;;;;;;7.00;7.00;;;;;;;;5059970;28;9650;-82
2023/06/19 14:31:53;;;;;;;;;10.00;9.00;;;;;;;;5060038;28;8821;-81
2023/06/19 14:34:22;;;;;;;;;7.40;4.20;;;;;;;;5067833;28;8992;-82
2023/06/19 14:36:50;;;;;;;;;6.60;6.60;;;;;;;;5060355;28;9760;-83
2023/06/19 14:39:17;;;;;;;;;7.60;7.60;;;;;;;;5053931;28;8850;-80
2023/06/19 14:41:44;;;;;;;;;8.60;8.60;;;;;;;;5059333;28;8861;-79
2023/06/19 14:44:13;;;;;;;;;8.60;7.40;;;;;;;;5054694;28;8953;-81
2023/06/19 14:46:40;;;;;;;;;7.00;7.00;;;;;;;;5062088;28;9621;-86
2023/06/19 14:49:08;;;;;;;;;6.80;6.80;;;;;;;;5058319;28;8855;-86
2023/06/19 14:51:35;;;;;;;;;6.00;6.00;;;;;;;;5045750;28;8887;-84
2023/06/19 14:54:03;;;;;;;;;6.00;6.00;;;;;;;;5070486;28;8881;-85